Terminal Aerodrome Forecast
Issued by NWS

Home | Current Version | Previous Version | Text Only | Print | Product List | Glossary On
Versions: 1 2 3 4 5 6 7 8 9 10 11 12 13
000
FTAK31 PAJN 051700
TAFAKT
TAF
PAKT 051720Z 0518/0618 14008KT 6SM -RA BR SCT006 OVC020
     FM052000 14015KT 4SM RA BR BKN006 OVC012
     FM060000 24006KT 5SM -RA BR BKN010 OVC020
     FM060400 VRB04KT P6SM VCSH SCT015 OVC025
      AMD LTD TO CLD VIS AND WIND 0606/0615=

USA.gov is the U.S. government's official web portal to all federal, state and local government web resources and services.